EmailTwitter


Observations de surface / France / LFMP (07747)

Régions: Québec | Canada | États-Unis | Europe | France | UK | Ailleurs
Station
Affichage
Infos & localisation pour LFMP (07747) | Aide pour décoder les METARs

Observations prises le 2018-12-15 à 03H00 UTC à PERPIGNAN/RIVESA, FR (LFMP)

Température: 11.0 Celsius

Point de rosée: 5.0 Celsius

Humidité relative: 66%

Vents: Nord-ouest à 13 km/h ou 7 noeuds.

Pression au niveau moyen de la mer: 102.00 kilopascals.

Observation METAR:

LFMP 150300Z AUTO 33007KT 280V360 CAVOK 11/05 Q1020 TEMPO RA=